Time;durP1;ratioP1;P1;durP2;ratioP2;P2;SDS_P1;SDS_P2;PMS_P1;PMS_P2;Temp;Humidity;BMP_temperature;BMP_pressure;BME280_temperature;BME280_humidity;BME280_pressure;Samples;Min_cycle;Max_cycle;Signal;HPM_P1;HPM_P2
2024/01/19 00:01:53;;;;;;;8.23;2.80;;;;;;;-2.80;100.00;100451.88;5935950;28;20573;-73
2024/01/19 00:04:48;;;;;;;11.00;2.73;;;;;;;-2.78;100.00;100455.28;5934677;29;20087;-74
2024/01/19 00:07:44;;;;;;;6.33;2.70;;;;;;;-2.70;100.00;100458.38;5934406;29;20036;-74
2024/01/19 00:10:39;;;;;;;7.27;2.77;;;;;;;-2.64;100.00;100465.88;5933765;29;20060;-73
2024/01/19 00:13:34;;;;;;;6.27;2.63;;;;;;;-2.70;100.00;100453.19;5934107;29;20040;-74
2024/01/19 00:16:29;;;;;;;5.33;2.30;;;;;;;-2.61;100.00;100470.09;5932621;29;20308;-74
2024/01/19 00:19:25;;;;;;;7.77;2.50;;;;;;;-2.64;100.00;100460.69;5933134;29;20024;-74
2024/01/19 00:22:20;;;;;;;6.55;2.58;;;;;;;-2.53;100.00;100466.22;5934505;29;20024;-75
2024/01/19 00:25:16;;;;;;;6.27;2.67;;;;;;;-2.52;100.00;100475.69;5934514;29;21361;-74
2024/01/19 00:28:11;;;;;;;7.10;2.50;;;;;;;-2.55;100.00;100473.22;5935629;29;20044;-74
2024/01/19 00:31:06;;;;;;;9.23;2.43;;;;;;;-2.50;100.00;100471.25;5936140;29;20283;-74
2024/01/19 00:34:02;;;;;;;5.38;2.42;;;;;;;-2.50;100.00;100481.66;5932173;29;20032;-73
2024/01/19 00:36:57;;;;;;;6.70;2.20;;;;;;;-2.57;100.00;100479.41;5934514;29;20480;-73
2024/01/19 00:39:52;;;;;;;9.10;2.87;;;;;;;-2.59;100.00;100476.03;5932612;29;20336;-74
2024/01/19 00:42:48;;;;;;;9.20;2.77;;;;;;;-2.51;100.00;100490.38;5934999;29;20291;-74
2024/01/19 00:45:43;;;;;;;5.50;2.50;;;;;;;-2.53;100.00;100481.78;5936023;29;20028;-74
2024/01/19 00:48:39;;;;;;;4.70;2.33;;;;;;;-2.38;100.00;100503.63;5933887;29;20036;-73
2024/01/19 00:51:35;;;;;;;9.95;2.63;;;;;;;-2.42;100.00;100504.69;5933304;29;20073;-74
2024/01/19 00:54:30;;;;;;;4.30;2.20;;;;;;;-2.42;100.00;100505.50;5935429;29;20040;-73
2024/01/19 00:57:25;;;;;;;9.13;2.93;;;;;;;-2.39;100.00;100503.69;5933184;29;20492;-73
2024/01/19 01:00:21;;;;;;;5.60;2.17;;;;;;;-2.35;100.00;100502.63;5934096;29;20031;-73
2024/01/19 01:03:23;;;;;;;5.50;2.40;;;;;;;-2.30;100.00;100506.69;5936609;29;20123;-74
2024/01/19 01:06:18;;;;;;;5.57;2.45;;;;;;;-2.31;100.00;100509.38;5938396;29;20026;-73
2024/01/19 01:09:14;;;;;;;4.80;2.03;;;;;;;-2.28;100.00;100524.81;5937387;29;20608;-73
2024/01/19 01:12:10;;;;;;;7.20;2.70;;;;;;;-2.36;100.00;100521.75;5938195;29;20035;-74
2024/01/19 01:15:05;;;;;;;5.33;2.97;;;;;;;-2.24;100.00;100534.16;5937393;29;20035;-74
2024/01/19 01:18:00;;;;;;;6.40;2.20;;;;;;;-2.31;100.00;100527.56;5935879;29;20283;-74
2024/01/19 01:20:57;;;;;;;9.30;3.40;;;;;;;-2.24;100.00;100528.94;5937256;29;20133;-74
2024/01/19 01:23:52;;;;;;;9.25;3.03;;;;;;;-2.28;100.00;100536.03;5935716;29;20050;-74
2024/01/19 01:26:48;;;;;;;3.97;2.27;;;;;;;-2.26;100.00;100525.59;5937125;29;20087;-72
2024/01/19 01:29:43;;;;;;;6.50;2.90;;;;;;;-2.20;100.00;100536.50;5936900;29;20060;-74
2024/01/19 01:32:38;;;;;;;5.10;2.72;;;;;;;-2.26;100.00;100520.41;5937027;29;20044;-74
2024/01/19 01:35:35;;;;;;;8.33;2.73;;;;;;;-2.21;100.00;100534.84;5935648;29;20052;-74
2024/01/19 01:38:31;;;;;;;13.88;3.50;;;;;;;-2.17;100.00;100541.56;5936024;29;20032;-74
2024/01/19 01:41:26;;;;;;;10.83;3.30;;;;;;;-2.22;100.00;100540.94;5939504;29;20075;-74
2024/01/19 01:44:22;;;;;;;10.20;3.33;;;;;;;-2.15;100.00;100559.69;5937413;29;20268;-73
2024/01/19 01:47:17;;;;;;;6.90;2.72;;;;;;;-2.17;100.00;100545.91;5935275;29;20449;-73
2024/01/19 01:50:12;;;;;;;6.73;3.60;;;;;;;-2.01;100.00;100562.50;5937777;29;20047;-73
2024/01/19 01:53:08;;;;;;;10.97;3.00;;;;;;;-2.02;100.00;100560.81;5937680;29;20044;-73
2024/01/19 01:56:05;;;;;;;7.70;2.97;;;;;;;-2.07;100.00;100544.59;5934884;29;20469;-73
2024/01/19 01:59:00;;;;;;;8.82;3.40;;;;;;;-2.03;100.00;100552.19;5934138;29;20036;-73
2024/01/19 02:01:56;;;;;;;7.70;3.30;;;;;;;-2.08;100.00;100551.56;5936387;29;20046;-73
2024/01/19 02:04:51;;;;;;;11.23;3.38;;;;;;;-2.02;100.00;100566.84;5934979;29;20785;-74
2024/01/19 02:07:46;;;;;;;7.30;3.07;;;;;;;-1.98;100.00;100570.13;5934244;29;20036;-74
2024/01/19 02:10:42;;;;;;;14.20;2.93;;;;;;;-2.05;100.00;100566.16;5936401;29;20028;-73
2024/01/19 02:13:37;;;;;;;8.43;2.87;;;;;;;-2.01;100.00;100565.09;5937361;29;20032;-74
2024/01/19 02:16:33;;;;;;;8.57;2.97;;;;;;;-2.01;100.00;100560.72;5935028;29;20028;-73
2024/01/19 02:19:28;;;;;;;5.97;2.75;;;;;;;-1.91;100.00;100577.59;5935377;29;20040;-73
2024/01/19 02:22:25;;;;;;;10.30;3.87;;;;;;;-1.89;100.00;100587.91;5935796;29;20047;-73
2024/01/19 02:25:20;;;;;;;7.85;3.72;;;;;;;-1.91;100.00;100582.78;5933942;29;20272;-74
2024/01/19 02:28:16;;;;;;;13.43;3.25;;;;;;;-1.88;100.00;100587.84;5934282;29;20096;-73
2024/01/19 02:31:11;;;;;;;10.60;3.20;;;;;;;-1.80;100.00;100590.09;5935115;29;20119;-74
2024/01/19 02:34:07;;;;;;;7.43;3.25;;;;;;;-1.72;100.00;100595.78;5937279;29;20042;-74
2024/01/19 02:37:03;;;;;;;6.20;2.80;;;;;;;-1.80;100.00;100579.69;5940429;29;20066;-74
2024/01/19 02:40:00;;;;;;;6.72;2.72;;;;;;;-1.83;100.00;100585.88;5938790;29;20091;-73
2024/01/19 02:42:55;;;;;;;12.13;4.10;;;;;;;-1.84;100.00;100596.31;5934673;29;20040;-73
2024/01/19 02:45:50;;;;;;;8.98;2.88;;;;;;;-1.89;100.00;100593.09;5934027;29;20099;-74
2024/01/19 02:48:46;;;;;;;7.67;3.50;;;;;;;-1.88;100.00;100602.59;5933950;29;20516;-73
2024/01/19 02:51:41;;;;;;;9.03;3.87;;;;;;;-2.02;100.00;100595.44;5934357;29;20036;-73
2024/01/19 02:54:37;;;;;;;9.13;3.67;;;;;;;-2.02;100.00;100589.38;5937188;29;20033;-73
2024/01/19 02:57:33;;;;;;;6.68;3.03;;;;;;;-1.97;100.00;100587.41;5934444;29;20460;-73
2024/01/19 03:00:28;;;;;;;8.97;4.07;;;;;;;-2.02;100.00;100598.03;5935188;29;20032;-74
2024/01/19 03:03:23;;;;;;;15.83;4.73;;;;;;;-2.02;100.00;100603.22;5935216;29;20036;-74
2024/01/19 03:06:19;;;;;;;9.77;3.47;;;;;;;-2.07;100.00;100593.94;5933842;29;20039;-73
2024/01/19 03:09:14;;;;;;;10.83;3.47;;;;;;;-2.01;100.00;100609.25;5933297;29;20062;-73
2024/01/19 03:12:09;;;;;;;11.33;4.23;;;;;;;-2.00;100.00;100605.75;5933191;29;20280;-73
2024/01/19 03:15:05;;;;;;;10.87;4.03;;;;;;;-1.92;100.00;100608.81;5933280;29;20040;-74
2024/01/19 03:18:00;;;;;;;17.30;3.90;;;;;;;-1.91;100.00;100580.19;5934027;29;20028;-74
2024/01/19 03:20:55;;;;;;;7.20;3.43;;;;;;;-1.69;100.00;100605.19;5935124;29;20042;-74
2024/01/19 03:23:51;;;;;;;10.80;3.80;;;;;;;-1.62;100.00;100604.81;5931452;29;20111;-73
2024/01/19 03:26:46;;;;;;;7.80;3.53;;;;;;;-1.58;100.00;100608.13;5936154;29;20122;-73
2024/01/19 03:29:42;;;;;;;8.93;3.67;;;;;;;-1.59;100.00;100611.63;5940212;29;20432;-73
2024/01/19 03:32:38;;;;;;;6.55;3.40;;;;;;;-1.65;100.00;100612.75;5939085;29;20126;-73
2024/01/19 03:35:34;;;;;;;13.07;3.83;;;;;;;-1.71;100.00;100602.63;5941114;29;20031;-73
2024/01/19 03:38:30;;;;;;;12.45;3.97;;;;;;;-1.63;100.00;100613.50;5937246;29;20028;-73
2024/01/19 03:41:26;;;;;;;8.45;4.05;;;;;;;-1.68;100.00;100607.69;5940692;29;20059;-73
2024/01/19 03:44:23;;;;;;;11.50;3.93;;;;;;;-1.73;100.00;100608.81;5941350;29;20040;-74
2024/01/19 03:47:18;;;;;;;6.35;3.53;;;;;;;-1.79;100.00;100609.94;5938106;29;20032;-74
2024/01/19 03:50:14;;;;;;;7.00;3.27;;;;;;;-1.85;100.00;100607.66;5939394;29;20028;-73
2024/01/19 03:53:10;;;;;;;7.67;3.20;;;;;;;-1.87;100.00;100610.31;5940760;29;20037;-73
2024/01/19 03:56:05;;;;;;;9.55;3.92;;;;;;;-1.81;100.00;100609.19;5941392;29;20684;-73
2024/01/19 03:59:01;;;;;;;8.57;3.53;;;;;;;-1.88;100.00;100610.38;5939402;29;20051;-73
2024/01/19 04:01:56;;;;;;;11.47;4.13;;;;;;;-1.93;100.00;100600.19;5938481;29;20075;-73
2024/01/19 04:04:51;;;;;;;9.50;3.50;;;;;;;-1.93;100.00;100614.97;5938490;29;20042;-73
2024/01/19 04:07:47;;;;;;;11.43;3.90;;;;;;;-1.92;100.00;100614.88;5938556;29;20277;-73
2024/01/19 04:10:42;;;;;;;6.20;3.37;;;;;;;-1.90;100.00;100612.19;5937867;29;20491;-73
2024/01/19 04:13:37;;;;;;;17.73;4.60;;;;;;;-1.84;100.00;100622.31;5937586;29;20070;-73
2024/01/19 04:16:33;;;;;;;11.60;4.00;;;;;;;-1.85;100.00;100631.03;5936890;29;20042;-74
2024/01/19 04:19:28;;;;;;;11.70;4.27;;;;;;;-1.90;100.00;100630.38;5938259;29;20032;-73
2024/01/19 04:22:25;;;;;;;11.53;4.43;;;;;;;-1.90;100.00;100633.81;5934648;29;20024;-73
2024/01/19 04:25:21;;;;;;;12.35;4.47;;;;;;;-1.98;100.00;100646.31;5936318;29;20036;-73
2024/01/19 04:28:16;;;;;;;9.77;4.13;;;;;;;-2.04;100.00;100640.56;5936065;29;20039;-74
2024/01/19 04:31:11;;;;;;;9.93;4.27;;;;;;;-2.00;100.00;100642.09;5937088;29;20263;-74
2024/01/19 04:34:07;;;;;;;8.50;4.30;;;;;;;-1.97;100.00;100634.19;5937467;29;20119;-73
2024/01/19 04:37:02;;;;;;;9.23;4.07;;;;;;;-1.97;100.00;100648.00;5938360;29;20032;-73
2024/01/19 04:39:57;;;;;;;8.70;3.83;;;;;;;-1.92;100.00;100665.97;5933533;29;20036;-73
2024/01/19 04:42:53;;;;;;;10.63;3.73;;;;;;;-1.85;100.00;100667.41;5938547;29;20093;-74
2024/01/19 04:45:48;;;;;;;10.07;3.30;;;;;;;-1.85;100.00;100657.84;5935038;29;20032;-73
2024/01/19 04:48:43;;;;;;;12.60;4.23;;;;;;;-1.81;100.00;100659.41;5936145;29;20028;-74
2024/01/19 04:51:38;;;;;;;8.17;3.43;;;;;;;-1.93;100.00;100654.75;5938007;29;20516;-74
2024/01/19 04:54:34;;;;;;;7.93;3.07;;;;;;;-2.02;100.00;100667.31;5936924;29;20032;-73
2024/01/19 04:57:29;;;;;;;9.90;4.17;;;;;;;-2.12;100.00;100669.47;5936672;29;20036;-73
2024/01/19 05:00:24;;;;;;;10.63;4.47;;;;;;;-2.15;100.00;100679.16;5935814;29;20111;-73
2024/01/19 05:03:20;;;;;;;12.33;4.67;;;;;;;-2.25;100.00;100662.28;5934499;29;20165;-73
2024/01/19 05:06:15;;;;;;;15.13;6.10;;;;;;;-2.24;100.00;100684.75;5930782;29;20171;-74
2024/01/19 05:09:10;;;;;;;12.07;5.13;;;;;;;-2.22;100.00;100693.31;5934146;29;20024;-73
2024/01/19 05:12:06;;;;;;;15.97;5.23;;;;;;;-2.25;100.00;100689.09;5934209;29;20291;-72
2024/01/19 05:15:02;;;;;;;15.05;5.75;;;;;;;-2.32;100.00;100681.63;5931455;29;20032;-72
2024/01/19 05:17:57;;;;;;;16.65;5.95;;;;;;;-2.20;100.00;100691.50;5931471;29;20111;-73
2024/01/19 05:20:53;;;;;;;16.13;6.35;;;;;;;-2.29;100.00;100697.94;5937483;29;20035;-73
2024/01/19 05:23:48;;;;;;;11.50;5.65;;;;;;;-2.26;100.00;100684.81;5934370;29;20043;-73
2024/01/19 05:26:43;;;;;;;12.60;5.30;;;;;;;-2.20;100.00;100691.50;5933989;29;20393;-73
2024/01/19 05:29:39;;;;;;;18.77;5.47;;;;;;;-2.20;100.00;100701.88;5937230;29;20419;-73
2024/01/19 05:32:34;;;;;;;15.30;5.40;;;;;;;-2.29;100.00;100697.09;5936191;29;20039;-73
2024/01/19 05:35:29;;;;;;;12.73;5.10;;;;;;;-2.29;100.00;100697.94;5939583;29;20291;-73
2024/01/19 05:38:25;;;;;;;13.07;4.70;;;;;;;-2.18;100.00;100713.03;5936105;29;20039;-72
2024/01/19 05:41:21;;;;;;;14.93;6.20;;;;;;;-2.25;100.00;100703.81;5932965;29;20436;-72
2024/01/19 05:44:16;;;;;;;15.77;5.70;;;;;;;-2.30;100.00;100706.63;5936308;29;20035;-73
2024/01/19 05:47:12;;;;;;;14.47;5.37;;;;;;;-2.38;100.00;100703.50;5937179;29;20039;-73
2024/01/19 05:50:07;;;;;;;13.80;5.82;;;;;;;-2.29;100.00;100723.03;5939831;29;20161;-73
2024/01/19 05:53:03;;;;;;;13.02;4.97;;;;;;;-2.32;100.00;100720.56;5938079;29;20059;-72
2024/01/19 05:55:58;;;;;;;16.48;6.30;;;;;;;-2.35;100.00;100712.91;5939551;28;20044;-72
2024/01/19 05:58:53;;;;;;;17.07;5.33;;;;;;;-2.36;100.00;100711.25;5937119;29;20028;-73
2024/01/19 06:01:49;;;;;;;13.27;5.57;;;;;;;-2.21;100.00;100726.16;5937235;29;20036;-72
2024/01/19 06:04:44;;;;;;;19.27;5.87;;;;;;;-2.25;100.00;100724.59;5938261;29;20039;-72
2024/01/19 06:07:39;;;;;;;11.43;5.33;;;;;;;-2.24;100.00;100726.28;5938384;29;20032;-73
2024/01/19 06:10:35;;;;;;;14.57;5.43;;;;;;;-2.17;100.00;100740.69;5938162;29;20032;-72
2024/01/19 06:13:32;;;;;;;11.40;5.30;;;;;;;-2.25;100.00;100740.16;5938953;29;20038;-72
2024/01/19 06:16:27;;;;;;;14.43;5.30;;;;;;;-2.17;100.00;100751.06;5940385;29;20122;-73
2024/01/19 06:19:22;;;;;;;13.10;4.93;;;;;;;-2.18;100.00;100757.19;5936457;29;20024;-72
2024/01/19 06:22:18;;;;;;;11.80;5.40;;;;;;;-2.19;100.00;100758.09;5938121;29;20023;-72
2024/01/19 06:25:14;;;;;;;14.53;5.23;;;;;;;-2.27;100.00;100757.56;5938748;29;20035;-72
2024/01/19 06:28:10;;;;;;;13.50;5.60;;;;;;;-2.23;100.00;100761.75;5938670;29;20406;-72
2024/01/19 06:31:07;;;;;;;12.55;4.80;;;;;;;-2.23;100.00;100774.72;5936900;29;20042;-72
2024/01/19 06:34:02;;;;;;;12.65;4.90;;;;;;;-2.17;100.00;100774.44;5938705;29;20040;-72
2024/01/19 06:36:58;;;;;;;11.77;4.63;;;;;;;-2.23;100.00;100770.38;5939186;29;20104;-72
2024/01/19 06:39:54;;;;;;;14.87;5.47;;;;;;;-2.16;100.00;100776.16;5938601;29;20730;-72
2024/01/19 06:42:49;;;;;;;11.27;5.78;;;;;;;-2.25;100.00;100772.16;5940794;29;20279;-72
2024/01/19 06:45:45;;;;;;;11.83;5.93;;;;;;;-2.15;100.00;100772.66;5939388;29;20663;-72
2024/01/19 06:48:41;;;;;;;15.23;5.80;;;;;;;-2.12;100.00;100794.13;5941406;29;20076;-72
2024/01/19 06:51:36;;;;;;;11.55;5.57;;;;;;;-2.25;100.00;100784.31;5939349;29;20064;-72
2024/01/19 06:54:32;;;;;;;13.35;5.28;;;;;;;-2.27;100.00;100778.34;5934646;29;20040;-72
2024/01/19 06:57:27;;;;;;;11.10;5.10;;;;;;;-2.30;100.00;100799.22;5938641;29;20031;-72
2024/01/19 07:00:23;;;;;;;14.40;5.47;;;;;;;-2.32;100.00;100809.69;5937529;29;20046;-72
2024/01/19 07:03:19;;;;;;;14.13;5.70;;;;;;;-2.38;100.00;100802.16;5937349;29;20032;-72
2024/01/19 07:06:14;;;;;;;14.52;5.18;;;;;;;-2.34;100.00;100808.94;5938708;29;20092;-72
2024/01/19 07:09:10;;;;;;;16.90;6.40;;;;;;;-2.30;100.00;100820.00;5939475;28;20052;-72
2024/01/19 07:12:05;;;;;;;13.10;5.32;;;;;;;-2.35;100.00;100821.94;5942194;29;20161;-73
2024/01/19 07:15:01;;;;;;;17.30;5.70;;;;;;;-2.27;100.00;100835.47;5936757;29;20512;-73
2024/01/19 07:17:56;;;;;;;11.53;5.07;;;;;;;-2.32;100.00;100834.81;5935060;29;20028;-72
2024/01/19 07:20:51;;;;;;;13.50;5.50;;;;;;;-2.34;100.00;100844.41;5932425;29;20024;-72
2024/01/19 07:23:47;;;;;;;12.10;4.77;;;;;;;-2.42;100.00;100848.16;5933535;29;20046;-72
2024/01/19 07:26:42;;;;;;;11.87;4.93;;;;;;;-2.39;100.00;100843.75;5932477;29;20028;-72
2024/01/19 07:29:37;;;;;;;11.57;5.37;;;;;;;-2.42;100.00;100842.97;5931652;29;20083;-72
2024/01/19 07:32:33;;;;;;;12.10;6.03;;;;;;;-2.43;100.00;100851.66;5935303;29;20067;-72
2024/01/19 07:35:28;;;;;;;13.07;5.70;;;;;;;-2.43;100.00;100862.06;5933659;29;20295;-72
2024/01/19 07:38:23;;;;;;;12.00;5.23;;;;;;;-2.45;100.00;100863.84;5937058;29;20359;-71
2024/01/19 07:41:19;;;;;;;9.93;5.00;;;;;;;-2.42;100.00;100868.91;5948204;29;20035;-72
2024/01/19 07:44:14;;;;;;;13.37;6.50;;;;;;;-2.37;100.00;100873.94;5954544;29;20047;-72
2024/01/19 07:47:09;;;;;;;11.83;5.50;;;;;;;-2.32;100.00;100874.59;5934967;29;20272;-72
2024/01/19 07:50:05;;;;;;;14.87;6.00;;;;;;;-2.34;100.00;100879.03;5935122;29;20036;-72
2024/01/19 07:53:00;;;;;;;14.52;6.28;;;;;;;-2.26;100.00;100889.09;5935583;29;20043;-72
2024/01/19 07:55:56;;;;;;;11.32;5.75;;;;;;;-2.22;100.00;100890.66;5933100;29;20091;-72
2024/01/19 07:58:51;;;;;;;14.27;5.57;;;;;;;-2.28;100.00;100881.34;5931747;29;20032;-72
2024/01/19 08:01:46;;;;;;;13.17;5.20;;;;;;;-2.20;100.00;100889.69;5934424;29;20028;-72
2024/01/19 08:04:42;;;;;;;10.53;5.10;;;;;;;-2.20;100.00;100900.06;5933626;29;20142;-72
2024/01/19 08:07:37;;;;;;;14.10;6.93;;;;;;;-2.16;100.00;100901.66;5948396;29;20035;-73
2024/01/19 08:10:35;;;;;;;12.30;6.63;;;;;;;-2.14;100.00;100904.16;5945958;28;20523;-73
2024/01/19 08:13:30;;;;;;;11.82;5.75;;;;;;;-2.02;100.00;100921.88;5936499;29;20040;-73
2024/01/19 08:16:25;;;;;;;12.83;6.10;;;;;;;-2.02;100.00;100914.94;5936459;29;20794;-73
2024/01/19 08:19:21;;;;;;;11.27;5.87;;;;;;;-1.84;100.00;100934.97;5939590;29;20020;-73
2024/01/19 08:22:19;;;;;;;12.48;6.55;;;;;;;-1.81;100.00;100924.44;5939888;29;20047;-75
2024/01/19 08:25:14;;;;;;;14.40;7.00;;;;;;;-1.78;100.00;100922.63;5945926;29;20391;-74
2024/01/19 08:28:10;;;;;;;16.23;6.47;;;;;;;-1.54;100.00;100947.59;5954066;29;20055;-74
2024/01/19 08:34:57;;;;;;;12.43;5.75;;;;;;;-1.28;100.00;100942.97;5949447;29;20387;-74
2024/01/19 08:37:53;;;;;;;12.38;5.57;;;;;;;-1.27;100.00;100947.28;5924856;29;20036;-76
2024/01/19 08:40:50;;;;;;;13.23;5.65;;;;;;;-1.20;100.00;100959.09;5951328;29;20039;-75
2024/01/19 08:44:06;;;;;;;14.90;6.13;;;;;;;-1.33;100.00;100944.94;5926968;29;20035;-77
2024/01/19 08:47:03;;;;;;;11.13;5.60;;;;;;;-1.22;100.00;100973.94;5957011;29;20040;-76
2024/01/19 08:50:02;;;;;;;10.95;5.15;;;;;;;-1.25;100.00;100960.22;5929075;29;20043;-77
2024/01/19 08:52:58;;;;;;;16.52;6.18;;;;;;;-1.06;100.00;100974.09;5954118;29;20139;-76
2024/01/19 08:55:53;;;;;;;13.63;5.57;;;;;;;-0.89;100.00;100979.44;5934913;29;20032;-75
2024/01/19 08:58:49;;;;;;;30.88;5.60;;;;;;;-0.76;100.00;100959.75;5953412;29;20456;-75
2024/01/19 09:01:47;;;;;;;13.97;5.60;;;;;;;-0.57;100.00;100984.97;5953136;29;20064;-76
2024/01/19 09:04:43;;;;;;;11.95;5.32;;;;;;;-0.53;100.00;100989.97;5947484;29;20276;-74
2024/01/19 09:07:39;;;;;;;10.48;5.10;;;;;;;-0.40;100.00;100982.44;5938810;29;20032;-74
2024/01/19 09:10:34;;;;;;;10.43;4.93;;;;;;;-0.21;100.00;100998.91;5945493;29;20039;-75
2024/01/19 09:13:30;;;;;;;11.02;4.60;;;;;;;-0.17;100.00;101005.69;5930470;29;20083;-74
2024/01/19 09:16:29;;;;;;;9.55;5.43;;;;;;;-0.18;100.00;100999.63;5942602;29;20047;-76
2024/01/19 09:19:26;;;;;;;13.57;6.13;;;;;;;-0.15;100.00;101004.69;5951888;29;20076;-74
2024/01/19 09:22:21;;;;;;;11.38;5.47;;;;;;;-0.02;100.00;101005.81;5950781;29;20072;-74
2024/01/19 09:25:16;;;;;;;9.40;5.03;;;;;;;0.06;100.00;100999.38;5943123;29;20047;-75
2024/01/19 09:28:12;;;;;;;11.95;5.32;;;;;;;0.21;100.00;101015.16;5957277;29;20043;-74
2024/01/19 09:31:07;;;;;;;11.20;4.87;;;;;;;0.31;100.00;101015.53;5956097;29;20115;-74
2024/01/19 09:34:03;;;;;;;10.60;5.27;;;;;;;0.41;100.00;101029.81;5954396;29;20048;-72
2024/01/19 09:36:58;;;;;;;10.80;5.50;;;;;;;0.45;100.00;101021.78;5953449;29;20471;-76
2024/01/19 09:39:53;;;;;;;11.10;5.40;;;;;;;0.52;100.00;101024.94;5957735;29;20031;-76
2024/01/19 09:42:55;;;;;;;14.27;6.13;;;;;;;0.55;100.00;101027.41;5950534;29;20040;-75
2024/01/19 09:45:52;;;;;;;12.57;4.95;;;;;;;0.62;100.00;101044.47;5948772;29;20043;-76
2024/01/19 09:48:59;;;;;;;11.70;5.43;;;;;;;0.75;100.00;101047.28;5971417;29;20028;-73
2024/01/19 09:52:32;;;;;;;12.65;5.40;;;;;;;0.73;100.00;101060.44;5953600;29;20518;-76
2024/01/19 09:55:29;;;;;;;10.25;5.57;;;;;;;0.76;100.00;101062.03;5944284;29;20067;-73
2024/01/19 09:58:26;;;;;;;10.40;5.68;;;;;;;0.76;100.00;101052.44;5952130;29;20498;-76
2024/01/19 10:01:25;;;;;;;10.77;5.07;;;;;;;0.92;100.00;101053.38;5955900;29;20123;-74
2024/01/19 10:04:21;;;;;;;9.95;5.30;;;;;;;0.93;100.00;101060.28;5955077;29;20114;-73
2024/01/19 10:07:16;;;;;;;10.73;5.10;;;;;;;1.06;100.00;101061.34;5946931;29;20043;-74
2024/01/19 10:10:12;;;;;;;9.20;4.90;;;;;;;0.93;100.00;101064.66;5955752;29;20739;-74
2024/01/19 10:13:07;;;;;;;11.13;5.03;;;;;;;1.03;100.00;101077.16;5949716;29;20050;-72
2024/01/19 10:16:03;;;;;;;11.27;4.78;;;;;;;1.01;100.00;101073.78;5951738;29;20052;-74
2024/01/19 10:18:59;;;;;;;12.45;4.80;;;;;;;1.15;100.00;101079.16;5954715;29;20106;-75
2024/01/19 10:21:55;;;;;;;11.52;4.80;;;;;;;1.17;100.00;101079.91;5946153;29;20096;-76
2024/01/19 10:25:04;;;;;;;11.70;4.70;;;;;;;1.06;100.00;101094.47;5956184;29;20031;-76
2024/01/19 10:27:59;;;;;;;14.50;4.82;;;;;;;1.12;100.00;101096.75;5948672;29;20036;-73
2024/01/19 10:31:13;;;;;;;11.93;4.40;;;;;;;1.06;100.00;101107.53;5956827;29;20045;-74
2024/01/19 10:34:17;;;;;;;11.40;5.20;;;;;;;1.10;100.00;101099.44;5947291;29;20291;-75
2024/01/19 10:37:21;;;;;;;13.35;4.32;;;;;;;1.14;100.00;101095.75;5952034;29;20035;-74
2024/01/19 10:40:22;;;;;;;9.40;4.30;;;;;;;1.11;100.00;101119.41;5950008;29;20066;-74
2024/01/19 10:43:22;;;;;;;7.50;4.45;;;;;;;0.88;100.00;101113.63;5934085;29;20131;-74
2024/01/19 10:46:26;;;;;;;10.98;4.32;;;;;;;1.05;100.00;101122.34;5949328;28;20036;-73
2024/01/19 10:49:21;;;;;;;10.90;4.95;;;;;;;1.08;100.00;101126.56;5943738;29;20431;-74
2024/01/19 10:52:18;;;;;;;10.52;4.72;;;;;;;1.07;100.00;101117.03;5950088;29;20051;-73
2024/01/19 10:55:18;;;;;;;14.52;5.13;;;;;;;1.24;100.00;101139.69;5949093;29;20032;-73
2024/01/19 10:58:13;;;;;;;10.68;4.60;;;;;;;1.08;100.00;101134.38;5945907;29;20047;-73
2024/01/19 11:01:17;;;;;;;11.20;5.40;;;;;;;1.15;100.00;101139.22;5941668;29;20084;-73
2024/01/19 11:04:12;;;;;;;13.90;5.40;;;;;;;1.33;100.00;101134.03;5949168;29;20121;-73
2024/01/19 11:07:08;;;;;;;13.47;5.43;;;;;;;1.40;100.00;101130.16;5942465;29;20062;-74
2024/01/19 11:10:03;;;;;;;11.70;5.07;;;;;;;1.42;100.00;101117.84;5954362;29;20676;-73
2024/01/19 11:13:01;;;;;;;14.20;5.25;;;;;;;1.65;100.00;101122.75;5956455;29;20039;-73
2024/01/19 11:15:57;;;;;;;11.23;5.05;;;;;;;1.70;100.00;101137.28;5949226;29;20110;-72
2024/01/19 11:18:54;;;;;;;9.93;4.38;;;;;;;1.61;100.00;101118.59;5953119;29;20561;-73
2024/01/19 11:21:51;;;;;;;15.20;5.78;;;;;;;1.48;100.00;101126.25;5949266;29;20075;-73
2024/01/19 11:24:47;;;;;;;14.55;5.68;;;;;;;1.45;100.00;101120.31;5953156;29;20094;-73
2024/01/19 11:27:55;;;;;;;12.88;5.40;;;;;;;1.34;100.00;101127.84;5950028;29;20031;-72
2024/01/19 11:31:02;;;;;;;14.50;5.28;;;;;;;1.23;100.00;101127.53;5959943;29;20059;-73
2024/01/19 11:33:57;;;;;;;13.07;4.90;;;;;;;1.05;100.00;101127.56;5948933;29;20472;-73
2024/01/19 11:36:53;;;;;;;14.77;5.33;;;;;;;0.94;100.00;101129.00;5946527;29;20032;-73
2024/01/19 11:39:48;;;;;;;12.73;5.67;;;;;;;0.89;100.00;101129.22;5944848;29;20277;-73
2024/01/19 11:42:44;;;;;;;20.00;6.07;;;;;;;0.83;100.00;101142.56;5949014;29;20031;-73
2024/01/19 11:45:40;;;;;;;12.90;5.50;;;;;;;0.72;100.00;101131.78;5950677;29;20032;-73
2024/01/19 11:48:43;;;;;;;11.02;5.03;;;;;;;0.79;100.00;101146.22;5953078;29;20038;-73
2024/01/19 11:51:38;;;;;;;16.08;5.68;;;;;;;0.69;100.00;101134.56;5949512;29;20127;-73
2024/01/19 11:54:34;;;;;;;11.67;4.40;;;;;;;0.70;100.00;101143.22;5956294;28;20515;-73
2024/01/19 11:57:29;;;;;;;14.63;5.38;;;;;;;0.63;100.00;101139.19;5946850;29;20043;-73
2024/01/19 12:00:25;;;;;;;14.07;5.28;;;;;;;0.71;100.00;101147.53;5942057;29;20122;-74
2024/01/19 12:03:20;;;;;;;14.82;6.03;;;;;;;0.83;100.00;101144.31;5951336;29;20449;-73
2024/01/19 12:06:16;;;;;;;12.32;4.57;;;;;;;0.80;100.00;101153.16;5942482;29;20086;-74
2024/01/19 12:09:12;;;;;;;14.98;5.13;;;;;;;0.81;100.00;101149.63;5949793;29;20028;-73
2024/01/19 12:12:08;;;;;;;15.32;6.18;;;;;;;0.77;100.00;101129.81;5953051;29;20039;-73
2024/01/19 12:15:06;;;;;;;10.10;4.57;;;;;;;0.85;100.00;101134.66;5949336;29;20032;-73
2024/01/19 12:18:04;;;;;;;16.13;5.93;;;;;;;0.92;100.00;101133.44;5952309;29;20075;-74
2024/01/19 12:21:00;;;;;;;16.88;5.07;;;;;;;0.94;100.00;101137.69;5952605;28;20046;-73
2024/01/19 12:23:57;;;;;;;15.13;5.43;;;;;;;1.02;100.00;101153.81;5954651;28;20445;-73
2024/01/19 12:26:52;;;;;;;16.60;5.40;;;;;;;1.03;100.00;101152.06;5943522;29;20039;-72
2024/01/19 12:29:47;;;;;;;15.60;5.53;;;;;;;0.97;100.00;101153.19;5943728;29;20031;-73
2024/01/19 12:32:44;;;;;;;18.83;5.67;;;;;;;0.93;100.00;101140.34;5962056;29;20385;-73
2024/01/19 12:35:40;;;;;;;17.27;5.50;;;;;;;0.97;100.00;101155.81;5942064;29;20032;-74
2024/01/19 12:38:35;;;;;;;17.10;5.97;;;;;;;0.96;100.00;101143.66;5950170;29;20440;-72
2024/01/19 12:41:30;;;;;;;19.67;6.00;;;;;;;0.97;100.00;101149.72;5940263;29;20040;-73
2024/01/19 12:44:26;;;;;;;16.60;4.95;;;;;;;1.03;100.00;101165.09;5943164;29;20272;-73
2024/01/19 12:47:21;;;;;;;10.68;4.63;;;;;;;1.02;100.00;101174.69;5946751;29;20800;-73
2024/01/19 12:50:17;;;;;;;15.10;5.17;;;;;;;0.96;100.00;101163.69;5952136;29;20032;-73
2024/01/19 12:53:16;;;;;;;17.80;6.05;;;;;;;1.07;100.00;101177.94;5953666;29;20384;-74
2024/01/19 12:56:28;;;;;;;12.45;5.20;;;;;;;1.03;100.00;101181.59;5953584;29;20468;-73
2024/01/19 12:59:24;;;;;;;12.93;4.78;;;;;;;1.04;100.00;101187.66;5947585;29;20126;-73
2024/01/19 13:02:19;;;;;;;14.65;5.35;;;;;;;1.06;100.00;101181.44;5952093;29;20664;-73
2024/01/19 13:05:22;;;;;;;12.97;4.40;;;;;;;1.02;100.00;101185.13;5946561;29;20078;-73
2024/01/19 13:08:18;;;;;;;10.82;4.53;;;;;;;0.87;100.00;101170.19;5958712;29;20059;-74
2024/01/19 13:11:13;;;;;;;22.55;5.85;;;;;;;1.07;100.00;101203.19;5950314;29;20035;-73
2024/01/19 13:14:09;;;;;;;12.70;4.35;;;;;;;1.08;100.00;101200.53;5954913;29;20084;-73
2024/01/19 13:17:05;;;;;;;15.88;5.78;;;;;;;1.05;100.00;101210.25;5955845;29;20035;-73
2024/01/19 13:20:03;;;;;;;13.57;5.10;;;;;;;0.99;100.00;101193.13;5952087;29;20040;-73
2024/01/19 13:23:00;;;;;;;16.70;5.20;;;;;;;1.07;100.00;101211.03;5949476;29;20449;-73
2024/01/19 13:25:56;;;;;;;12.32;4.28;;;;;;;1.06;100.00;101204.13;5957164;29;20036;-73
2024/01/19 13:28:51;;;;;;;14.02;5.00;;;;;;;1.10;100.00;101209.13;5951394;28;20031;-73
2024/01/19 13:31:46;;;;;;;13.77;3.73;;;;;;;1.05;100.00;101186.75;5951019;29;20082;-73